sensor_id;sensor_type;location;lat;lon;timestamp;P1;durP1;ratioP1;P2;durP2;ratioP2
67867;SDS011;54672;46.096;14.470;2023-12-07T00:01:33;32.33;;;13.68;;
67867;SDS011;54672;46.096;14.470;2023-12-07T00:03:59;33.17;;;13.77;;
67867;SDS011;54672;46.096;14.470;2023-12-07T00:06:25;30.92;;;13.57;;
67867;SDS011;54672;46.096;14.470;2023-12-07T00:08:51;33.00;;;13.13;;
67867;SDS011;54672;46.096;14.470;2023-12-07T00:11:17;29.13;;;12.43;;
67867;SDS011;54672;46.096;14.470;2023-12-07T00:13:42;30.23;;;13.55;;
67867;SDS011;54672;46.096;14.470;2023-12-07T00:16:08;27.88;;;12.85;;
67867;SDS011;54672;46.096;14.470;2023-12-07T00:18:33;34.95;;;13.95;;
67867;SDS011;54672;46.096;14.470;2023-12-07T00:20:59;29.38;;;13.18;;
67867;SDS011;54672;46.096;14.470;2023-12-07T00:23:24;28.63;;;12.43;;
67867;SDS011;54672;46.096;14.470;2023-12-07T00:25:50;28.70;;;12.80;;
67867;SDS011;54672;46.096;14.470;2023-12-07T00:28:15;30.67;;;13.52;;
67867;SDS011;54672;46.096;14.470;2023-12-07T00:30:41;32.58;;;13.25;;
67867;SDS011;54672;46.096;14.470;2023-12-07T00:33:07;32.22;;;13.38;;
67867;SDS011;54672;46.096;14.470;2023-12-07T00:35:34;27.80;;;12.40;;
67867;SDS011;54672;46.096;14.470;2023-12-07T00:38:00;25.67;;;12.52;;
67867;SDS011;54672;46.096;14.470;2023-12-07T00:40:26;27.77;;;12.77;;
67867;SDS011;54672;46.096;14.470;2023-12-07T00:42:52;26.60;;;12.02;;
67867;SDS011;54672;46.096;14.470;2023-12-07T00:45:17;26.90;;;12.05;;
67867;SDS011;54672;46.096;14.470;2023-12-07T00:47:43;24.00;;;10.43;;
67867;SDS011;54672;46.096;14.470;2023-12-07T00:50:09;22.80;;;10.07;;
67867;SDS011;54672;46.096;14.470;2023-12-07T00:52:37;21.15;;;9.75;;
67867;SDS011;54672;46.096;14.470;2023-12-07T00:55:03;19.38;;;9.25;;
67867;SDS011;54672;46.096;14.470;2023-12-07T00:57:29;22.33;;;9.35;;
67867;SDS011;54672;46.096;14.470;2023-12-07T00:59:54;26.75;;;10.30;;
67867;SDS011;54672;46.096;14.470;2023-12-07T01:02:20;26.08;;;11.45;;
67867;SDS011;54672;46.096;14.470;2023-12-07T01:04:45;24.25;;;10.75;;
67867;SDS011;54672;46.096;14.470;2023-12-07T01:07:12;27.67;;;11.35;;
67867;SDS011;54672;46.096;14.470;2023-12-07T01:09:37;29.58;;;12.05;;
67867;SDS011;54672;46.096;14.470;2023-12-07T01:12:04;26.88;;;10.20;;
67867;SDS011;54672;46.096;14.470;2023-12-07T01:14:29;24.60;;;10.85;;
67867;SDS011;54672;46.096;14.470;2023-12-07T01:16:55;23.58;;;10.52;;
67867;SDS011;54672;46.096;14.470;2023-12-07T01:19:20;22.75;;;11.43;;
67867;SDS011;54672;46.096;14.470;2023-12-07T01:21:46;29.55;;;11.85;;
67867;SDS011;54672;46.096;14.470;2023-12-07T01:24:11;27.48;;;11.98;;
67867;SDS011;54672;46.096;14.470;2023-12-07T01:26:37;27.08;;;11.43;;
67867;SDS011;54672;46.096;14.470;2023-12-07T01:29:02;21.00;;;10.18;;
67867;SDS011;54672;46.096;14.470;2023-12-07T01:31:28;25.00;;;10.55;;
67867;SDS011;54672;46.096;14.470;2023-12-07T01:33:55;30.05;;;12.05;;
67867;SDS011;54672;46.096;14.470;2023-12-07T01:36:20;30.45;;;11.90;;
67867;SDS011;54672;46.096;14.470;2023-12-07T01:38:46;29.77;;;11.40;;
67867;SDS011;54672;46.096;14.470;2023-12-07T01:41:11;26.33;;;11.15;;
67867;SDS011;54672;46.096;14.470;2023-12-07T01:43:37;26.33;;;11.73;;
67867;SDS011;54672;46.096;14.470;2023-12-07T01:46:03;25.55;;;10.95;;
67867;SDS011;54672;46.096;14.470;2023-12-07T01:48:30;25.52;;;10.00;;
67867;SDS011;54672;46.096;14.470;2023-12-07T01:50:56;23.42;;;10.43;;
67867;SDS011;54672;46.096;14.470;2023-12-07T01:53:23;23.15;;;9.40;;
67867;SDS011;54672;46.096;14.470;2023-12-07T01:55:50;25.20;;;10.93;;
67867;SDS011;54672;46.096;14.470;2023-12-07T01:58:17;23.27;;;9.75;;
67867;SDS011;54672;46.096;14.470;2023-12-07T02:00:43;24.38;;;10.50;;
67867;SDS011;54672;46.096;14.470;2023-12-07T02:03:09;25.15;;;10.40;;
67867;SDS011;54672;46.096;14.470;2023-12-07T02:05:34;24.58;;;10.00;;
67867;SDS011;54672;46.096;14.470;2023-12-07T02:08:01;22.25;;;9.40;;
67867;SDS011;54672;46.096;14.470;2023-12-07T02:10:27;20.60;;;9.48;;
67867;SDS011;54672;46.096;14.470;2023-12-07T02:12:52;21.70;;;9.75;;
67867;SDS011;54672;46.096;14.470;2023-12-07T02:15:20;20.70;;;8.95;;
67867;SDS011;54672;46.096;14.470;2023-12-07T02:20:35;24.40;;;10.25;;
67867;SDS011;54672;46.096;14.470;2023-12-07T02:23:05;22.20;;;9.40;;
67867;SDS011;54672;46.096;14.470;2023-12-07T02:25:36;21.70;;;8.95;;
67867;SDS011;54672;46.096;14.470;2023-12-07T02:28:09;23.80;;;9.88;;
67867;SDS011;54672;46.096;14.470;2023-12-07T02:30:35;22.33;;;8.95;;
67867;SDS011;54672;46.096;14.470;2023-12-07T02:33:00;20.70;;;9.35;;
67867;SDS011;54672;46.096;14.470;2023-12-07T02:35:26;25.65;;;9.55;;
67867;SDS011;54672;46.096;14.470;2023-12-07T02:37:52;22.23;;;9.95;;
67867;SDS011;54672;46.096;14.470;2023-12-07T02:40:22;29.00;;;9.82;;
67867;SDS011;54672;46.096;14.470;2023-12-07T02:42:50;21.23;;;8.30;;
67867;SDS011;54672;46.096;14.470;2023-12-07T02:45:17;19.75;;;9.10;;
67867;SDS011;54672;46.096;14.470;2023-12-07T02:47:43;24.45;;;9.23;;
67867;SDS011;54672;46.096;14.470;2023-12-07T02:50:10;19.33;;;7.93;;
67867;SDS011;54672;46.096;14.470;2023-12-07T02:52:36;19.50;;;8.20;;
67867;SDS011;54672;46.096;14.470;2023-12-07T02:55:02;21.90;;;9.25;;
67867;SDS011;54672;46.096;14.470;2023-12-07T02:57:28;20.40;;;8.88;;
67867;SDS011;54672;46.096;14.470;2023-12-07T02:59:54;21.52;;;9.38;;
67867;SDS011;54672;46.096;14.470;2023-12-07T03:02:20;23.55;;;9.27;;
67867;SDS011;54672;46.096;14.470;2023-12-07T03:04:46;19.63;;;7.68;;
67867;SDS011;54672;46.096;14.470;2023-12-07T03:07:11;17.98;;;7.80;;
67867;SDS011;54672;46.096;14.470;2023-12-07T03:09:37;18.35;;;8.15;;
67867;SDS011;54672;46.096;14.470;2023-12-07T03:12:03;20.75;;;8.50;;
67867;SDS011;54672;46.096;14.470;2023-12-07T03:14:28;18.50;;;7.85;;
67867;SDS011;54672;46.096;14.470;2023-12-07T03:16:54;16.55;;;8.30;;
67867;SDS011;54672;46.096;14.470;2023-12-07T03:19:19;17.95;;;8.20;;
67867;SDS011;54672;46.096;14.470;2023-12-07T03:21:45;17.55;;;7.95;;
67867;SDS011;54672;46.096;14.470;2023-12-07T03:24:10;19.77;;;8.05;;
67867;SDS011;54672;46.096;14.470;2023-12-07T03:26:36;22.77;;;8.70;;
67867;SDS011;54672;46.096;14.470;2023-12-07T03:29:02;17.73;;;8.52;;
67867;SDS011;54672;46.096;14.470;2023-12-07T03:31:28;19.17;;;7.68;;
67867;SDS011;54672;46.096;14.470;2023-12-07T03:33:54;21.00;;;8.93;;
67867;SDS011;54672;46.096;14.470;2023-12-07T03:36:21;21.52;;;9.02;;
67867;SDS011;54672;46.096;14.470;2023-12-07T03:38:47;22.65;;;9.23;;
67867;SDS011;54672;46.096;14.470;2023-12-07T03:41:12;20.67;;;8.38;;
67867;SDS011;54672;46.096;14.470;2023-12-07T03:43:38;17.15;;;8.63;;
67867;SDS011;54672;46.096;14.470;2023-12-07T03:46:04;17.33;;;8.32;;
67867;SDS011;54672;46.096;14.470;2023-12-07T03:48:30;21.83;;;9.10;;
67867;SDS011;54672;46.096;14.470;2023-12-07T03:50:55;19.60;;;8.52;;
67867;SDS011;54672;46.096;14.470;2023-12-07T03:53:21;19.65;;;8.25;;
67867;SDS011;54672;46.096;14.470;2023-12-07T03:55:46;19.52;;;8.50;;
67867;SDS011;54672;46.096;14.470;2023-12-07T03:58:12;17.60;;;8.18;;
67867;SDS011;54672;46.096;14.470;2023-12-07T04:00:38;21.00;;;8.60;;
67867;SDS011;54672;46.096;14.470;2023-12-07T04:03:04;18.08;;;8.40;;
67867;SDS011;54672;46.096;14.470;2023-12-07T04:05:29;26.15;;;10.10;;
67867;SDS011;54672;46.096;14.470;2023-12-07T04:07:55;22.67;;;9.13;;
67867;SDS011;54672;46.096;14.470;2023-12-07T04:10:20;15.25;;;7.20;;
67867;SDS011;54672;46.096;14.470;2023-12-07T04:12:45;19.85;;;8.50;;
67867;SDS011;54672;46.096;14.470;2023-12-07T04:15:11;20.02;;;8.10;;
67867;SDS011;54672;46.096;14.470;2023-12-07T04:17:36;18.85;;;8.80;;
67867;SDS011;54672;46.096;14.470;2023-12-07T04:20:02;20.33;;;8.00;;
67867;SDS011;54672;46.096;14.470;2023-12-07T04:22:28;22.00;;;8.25;;
67867;SDS011;54672;46.096;14.470;2023-12-07T04:24:54;23.30;;;7.60;;
67867;SDS011;54672;46.096;14.470;2023-12-07T04:27:19;22.17;;;8.70;;
67867;SDS011;54672;46.096;14.470;2023-12-07T04:29:45;18.25;;;7.75;;
67867;SDS011;54672;46.096;14.470;2023-12-07T04:32:10;26.02;;;9.45;;
67867;SDS011;54672;46.096;14.470;2023-12-07T04:34:36;18.38;;;7.85;;
67867;SDS011;54672;46.096;14.470;2023-12-07T04:37:01;20.40;;;7.93;;
67867;SDS011;54672;46.096;14.470;2023-12-07T04:39:27;19.90;;;7.60;;
67867;SDS011;54672;46.096;14.470;2023-12-07T04:41:53;20.88;;;8.55;;
67867;SDS011;54672;46.096;14.470;2023-12-07T04:44:19;22.77;;;8.57;;
67867;SDS011;54672;46.096;14.470;2023-12-07T04:46:44;19.25;;;7.43;;
67867;SDS011;54672;46.096;14.470;2023-12-07T04:49:10;22.45;;;8.75;;
67867;SDS011;54672;46.096;14.470;2023-12-07T04:51:36;21.85;;;8.35;;
67867;SDS011;54672;46.096;14.470;2023-12-07T04:54:01;22.58;;;8.25;;
67867;SDS011;54672;46.096;14.470;2023-12-07T04:56:27;24.83;;;8.95;;
67867;SDS011;54672;46.096;14.470;2023-12-07T04:58:52;21.05;;;8.65;;
67867;SDS011;54672;46.096;14.470;2023-12-07T05:01:18;19.70;;;7.95;;
67867;SDS011;54672;46.096;14.470;2023-12-07T05:03:46;23.52;;;8.85;;
67867;SDS011;54672;46.096;14.470;2023-12-07T05:06:12;20.98;;;8.85;;
67867;SDS011;54672;46.096;14.470;2023-12-07T05:08:38;17.40;;;8.07;;
67867;SDS011;54672;46.096;14.470;2023-12-07T05:11:04;16.92;;;7.95;;
67867;SDS011;54672;46.096;14.470;2023-12-07T05:13:31;18.35;;;8.45;;
67867;SDS011;54672;46.096;14.470;2023-12-07T05:15:58;21.67;;;8.20;;
67867;SDS011;54672;46.096;14.470;2023-12-07T05:18:25;17.73;;;7.80;;
67867;SDS011;54672;46.096;14.470;2023-12-07T05:20:50;20.67;;;8.35;;
67867;SDS011;54672;46.096;14.470;2023-12-07T05:23:16;17.80;;;8.00;;
67867;SDS011;54672;46.096;14.470;2023-12-07T05:25:42;20.83;;;9.15;;
67867;SDS011;54672;46.096;14.470;2023-12-07T05:28:07;20.00;;;8.48;;
67867;SDS011;54672;46.096;14.470;2023-12-07T05:30:33;20.63;;;8.57;;
67867;SDS011;54672;46.096;14.470;2023-12-07T05:32:58;19.08;;;8.50;;
67867;SDS011;54672;46.096;14.470;2023-12-07T05:35:24;19.58;;;7.82;;
67867;SDS011;54672;46.096;14.470;2023-12-07T05:37:49;16.75;;;7.57;;
67867;SDS011;54672;46.096;14.470;2023-12-07T05:40:15;18.90;;;7.95;;
67867;SDS011;54672;46.096;14.470;2023-12-07T05:42:41;21.17;;;8.10;;
67867;SDS011;54672;46.096;14.470;2023-12-07T05:45:06;19.92;;;8.73;;
67867;SDS011;54672;46.096;14.470;2023-12-07T05:47:32;22.55;;;7.65;;
67867;SDS011;54672;46.096;14.470;2023-12-07T05:49:58;20.08;;;7.45;;
67867;SDS011;54672;46.096;14.470;2023-12-07T05:52:25;21.17;;;8.57;;
67867;SDS011;54672;46.096;14.470;2023-12-07T05:54:50;19.17;;;7.80;;
67867;SDS011;54672;46.096;14.470;2023-12-07T05:57:15;16.38;;;7.13;;
67867;SDS011;54672;46.096;14.470;2023-12-07T05:59:41;20.13;;;7.95;;
67867;SDS011;54672;46.096;14.470;2023-12-07T06:02:08;21.92;;;8.98;;
67867;SDS011;54672;46.096;14.470;2023-12-07T06:04:34;20.45;;;9.02;;
67867;SDS011;54672;46.096;14.470;2023-12-07T06:06:59;23.35;;;8.63;;
67867;SDS011;54672;46.096;14.470;2023-12-07T06:09:25;20.55;;;8.25;;
67867;SDS011;54672;46.096;14.470;2023-12-07T06:11:50;21.23;;;8.30;;
67867;SDS011;54672;46.096;14.470;2023-12-07T06:14:16;21.67;;;8.63;;
67867;SDS011;54672;46.096;14.470;2023-12-07T06:16:42;21.48;;;8.90;;
67867;SDS011;54672;46.096;14.470;2023-12-07T06:19:07;22.13;;;9.13;;
67867;SDS011;54672;46.096;14.470;2023-12-07T06:21:33;24.73;;;9.27;;
67867;SDS011;54672;46.096;14.470;2023-12-07T06:23:58;33.47;;;9.50;;
67867;SDS011;54672;46.096;14.470;2023-12-07T06:26:24;25.40;;;10.13;;
67867;SDS011;54672;46.096;14.470;2023-12-07T06:28:50;27.92;;;9.13;;
67867;SDS011;54672;46.096;14.470;2023-12-07T06:31:15;25.05;;;9.65;;
67867;SDS011;54672;46.096;14.470;2023-12-07T06:33:44;24.83;;;9.05;;
67867;SDS011;54672;46.096;14.470;2023-12-07T06:36:10;23.73;;;9.70;;
67867;SDS011;54672;46.096;14.470;2023-12-07T06:38:36;22.98;;;9.23;;
67867;SDS011;54672;46.096;14.470;2023-12-07T06:41:03;28.30;;;10.38;;
67867;SDS011;54672;46.096;14.470;2023-12-07T06:43:29;27.17;;;10.00;;
67867;SDS011;54672;46.096;14.470;2023-12-07T06:45:54;28.80;;;9.07;;
67867;SDS011;54672;46.096;14.470;2023-12-07T06:48:20;27.80;;;10.15;;
67867;SDS011;54672;46.096;14.470;2023-12-07T06:50:45;30.65;;;11.40;;
67867;SDS011;54672;46.096;14.470;2023-12-07T06:53:11;34.00;;;11.98;;
67867;SDS011;54672;46.096;14.470;2023-12-07T06:55:36;30.52;;;10.77;;
67867;SDS011;54672;46.096;14.470;2023-12-07T06:58:02;25.77;;;10.25;;
67867;SDS011;54672;46.096;14.470;2023-12-07T07:00:27;32.05;;;11.77;;
67867;SDS011;54672;46.096;14.470;2023-12-07T07:02:52;30.35;;;10.35;;
67867;SDS011;54672;46.096;14.470;2023-12-07T07:05:18;29.23;;;10.77;;
67867;SDS011;54672;46.096;14.470;2023-12-07T07:07:45;31.13;;;10.73;;
67867;SDS011;54672;46.096;14.470;2023-12-07T07:10:10;23.95;;;9.23;;
67867;SDS011;54672;46.096;14.470;2023-12-07T07:12:37;27.63;;;10.52;;
67867;SDS011;54672;46.096;14.470;2023-12-07T07:15:03;26.65;;;9.40;;
67867;SDS011;54672;46.096;14.470;2023-12-07T07:17:28;27.08;;;8.93;;
67867;SDS011;54672;46.096;14.470;2023-12-07T07:19:54;27.63;;;8.95;;
67867;SDS011;54672;46.096;14.470;2023-12-07T07:22:20;25.77;;;8.80;;
67867;SDS011;54672;46.096;14.470;2023-12-07T07:24:47;21.67;;;8.70;;
67867;SDS011;54672;46.096;14.470;2023-12-07T07:27:12;21.77;;;8.73;;
67867;SDS011;54672;46.096;14.470;2023-12-07T07:29:38;22.65;;;7.82;;
67867;SDS011;54672;46.096;14.470;2023-12-07T07:32:03;20.77;;;8.15;;
67867;SDS011;54672;46.096;14.470;2023-12-07T07:34:29;15.90;;;7.43;;
67867;SDS011;54672;46.096;14.470;2023-12-07T07:36:55;16.23;;;7.55;;
67867;SDS011;54672;46.096;14.470;2023-12-07T07:39:20;24.45;;;9.10;;
67867;SDS011;54672;46.096;14.470;2023-12-07T07:41:46;18.73;;;7.70;;
67867;SDS011;54672;46.096;14.470;2023-12-07T07:44:11;18.33;;;7.85;;
67867;SDS011;54672;46.096;14.470;2023-12-07T07:46:36;25.50;;;8.35;;
67867;SDS011;54672;46.096;14.470;2023-12-07T07:49:02;33.30;;;11.32;;
67867;SDS011;54672;46.096;14.470;2023-12-07T07:51:29;32.53;;;13.88;;
67867;SDS011;54672;46.096;14.470;2023-12-07T07:53:55;34.95;;;14.48;;
67867;SDS011;54672;46.096;14.470;2023-12-07T07:56:21;36.63;;;13.20;;
67867;SDS011;54672;46.096;14.470;2023-12-07T07:58:47;30.00;;;8.90;;
67867;SDS011;54672;46.096;14.470;2023-12-07T08:01:12;25.52;;;9.68;;
67867;SDS011;54672;46.096;14.470;2023-12-07T08:03:38;26.13;;;9.45;;
67867;SDS011;54672;46.096;14.470;2023-12-07T08:06:03;22.65;;;8.20;;
67867;SDS011;54672;46.096;14.470;2023-12-07T08:08:29;23.33;;;10.05;;
67867;SDS011;54672;46.096;14.470;2023-12-07T08:10:54;34.58;;;12.88;;
67867;SDS011;54672;46.096;14.470;2023-12-07T08:13:20;30.17;;;10.95;;
67867;SDS011;54672;46.096;14.470;2023-12-07T08:15:45;29.80;;;10.98;;
67867;SDS011;54672;46.096;14.470;2023-12-07T08:18:11;25.42;;;10.13;;
67867;SDS011;54672;46.096;14.470;2023-12-07T08:20:36;25.83;;;8.98;;
67867;SDS011;54672;46.096;14.470;2023-12-07T08:23:02;24.88;;;9.32;;
67867;SDS011;54672;46.096;14.470;2023-12-07T08:25:28;29.10;;;9.70;;
67867;SDS011;54672;46.096;14.470;2023-12-07T08:27:53;37.95;;;11.20;;
67867;SDS011;54672;46.096;14.470;2023-12-07T08:30:19;28.83;;;10.25;;
67867;SDS011;54672;46.096;14.470;2023-12-07T08:32:45;33.33;;;10.43;;
67867;SDS011;54672;46.096;14.470;2023-12-07T08:35:10;37.63;;;10.85;;
67867;SDS011;54672;46.096;14.470;2023-12-07T08:37:38;27.92;;;10.55;;
67867;SDS011;54672;46.096;14.470;2023-12-07T08:40:05;28.65;;;10.35;;
67867;SDS011;54672;46.096;14.470;2023-12-07T08:42:31;28.73;;;10.93;;
67867;SDS011;54672;46.096;14.470;2023-12-07T08:44:57;28.08;;;10.50;;
67867;SDS011;54672;46.096;14.470;2023-12-07T08:47:23;40.22;;;11.40;;
67867;SDS011;54672;46.096;14.470;2023-12-07T08:49:48;29.52;;;10.00;;
67867;SDS011;54672;46.096;14.470;2023-12-07T08:52:14;33.63;;;10.02;;
67867;SDS011;54672;46.096;14.470;2023-12-07T08:54:39;33.25;;;11.13;;
67867;SDS011;54672;46.096;14.470;2023-12-07T08:57:05;32.22;;;11.43;;
67867;SDS011;54672;46.096;14.470;2023-12-07T08:59:30;40.67;;;13.07;;
67867;SDS011;54672;46.096;14.470;2023-12-07T09:01:56;41.17;;;11.80;;
67867;SDS011;54672;46.096;14.470;2023-12-07T09:04:21;36.50;;;11.20;;
67867;SDS011;54672;46.096;14.470;2023-12-07T09:06:47;29.08;;;12.10;;
67867;SDS011;54672;46.096;14.470;2023-12-07T09:09:13;37.63;;;13.15;;
67867;SDS011;54672;46.096;14.470;2023-12-07T09:11:38;34.83;;;12.05;;
67867;SDS011;54672;46.096;14.470;2023-12-07T09:14:04;28.10;;;11.07;;
67867;SDS011;54672;46.096;14.470;2023-12-07T09:16:29;28.55;;;10.95;;
67867;SDS011;54672;46.096;14.470;2023-12-07T09:18:55;30.98;;;11.60;;
67867;SDS011;54672;46.096;14.470;2023-12-07T09:21:21;36.00;;;12.50;;
67867;SDS011;54672;46.096;14.470;2023-12-07T09:23:46;30.88;;;10.93;;
67867;SDS011;54672;46.096;14.470;2023-12-07T09:26:12;31.23;;;11.40;;
67867;SDS011;54672;46.096;14.470;2023-12-07T09:28:37;35.38;;;10.75;;
67867;SDS011;54672;46.096;14.470;2023-12-07T09:31:04;31.73;;;12.20;;
67867;SDS011;54672;46.096;14.470;2023-12-07T09:33:30;31.02;;;12.50;;
67867;SDS011;54672;46.096;14.470;2023-12-07T09:35:55;30.80;;;11.88;;
67867;SDS011;54672;46.096;14.470;2023-12-07T09:38:21;27.90;;;11.48;;
67867;SDS011;54672;46.096;14.470;2023-12-07T09:40:46;31.05;;;10.60;;
67867;SDS011;54672;46.096;14.470;2023-12-07T09:43:17;28.50;;;10.20;;
67867;SDS011;54672;46.096;14.470;2023-12-07T09:45:43;37.55;;;17.30;;
67867;SDS011;54672;46.096;14.470;2023-12-07T09:48:09;28.67;;;12.07;;
67867;SDS011;54672;46.096;14.470;2023-12-07T09:50:35;30.90;;;11.10;;
67867;SDS011;54672;46.096;14.470;2023-12-07T09:53:02;27.25;;;11.43;;
67867;SDS011;54672;46.096;14.470;2023-12-07T09:55:27;36.28;;;13.50;;
67867;SDS011;54672;46.096;14.470;2023-12-07T09:57:53;28.73;;;10.70;;
67867;SDS011;54672;46.096;14.470;2023-12-07T10:00:22;33.42;;;11.52;;
67867;SDS011;54672;46.096;14.470;2023-12-07T10:02:47;31.48;;;11.30;;
67867;SDS011;54672;46.096;14.470;2023-12-07T10:05:13;30.05;;;11.63;;
67867;SDS011;54672;46.096;14.470;2023-12-07T10:07:41;36.72;;;11.93;;
67867;SDS011;54672;46.096;14.470;2023-12-07T10:10:08;33.08;;;11.50;;
67867;SDS011;54672;46.096;14.470;2023-12-07T10:12:40;28.02;;;11.32;;
67867;SDS011;54672;46.096;14.470;2023-12-07T10:15:15;27.75;;;10.57;;
67867;SDS011;54672;46.096;14.470;2023-12-07T10:17:51;32.33;;;11.20;;
67867;SDS011;54672;46.096;14.470;2023-12-07T10:20:22;32.88;;;12.25;;
67867;SDS011;54672;46.096;14.470;2023-12-07T10:22:49;28.60;;;11.43;;
67867;SDS011;54672;46.096;14.470;2023-12-07T10:25:33;26.70;;;10.38;;
67867;SDS011;54672;46.096;14.470;2023-12-07T10:28:01;34.80;;;12.07;;
67867;SDS011;54672;46.096;14.470;2023-12-07T10:30:31;31.58;;;11.18;;
67867;SDS011;54672;46.096;14.470;2023-12-07T10:32:57;30.30;;;11.77;;
67867;SDS011;54672;46.096;14.470;2023-12-07T10:35:23;34.13;;;12.07;;
67867;SDS011;54672;46.096;14.470;2023-12-07T10:37:48;31.33;;;11.05;;
67867;SDS011;54672;46.096;14.470;2023-12-07T10:40:14;32.70;;;11.88;;
67867;SDS011;54672;46.096;14.470;2023-12-07T10:42:40;34.50;;;11.68;;
67867;SDS011;54672;46.096;14.470;2023-12-07T10:45:12;40.65;;;12.43;;
67867;SDS011;54672;46.096;14.470;2023-12-07T10:47:40;30.08;;;10.55;;
67867;SDS011;54672;46.096;14.470;2023-12-07T10:50:09;29.45;;;11.88;;
67867;SDS011;54672;46.096;14.470;2023-12-07T10:52:46;32.47;;;12.90;;
67867;SDS011;54672;46.096;14.470;2023-12-07T10:55:17;29.90;;;11.57;;
67867;SDS011;54672;46.096;14.470;2023-12-07T10:57:46;32.35;;;12.60;;
67867;SDS011;54672;46.096;14.470;2023-12-07T11:00:12;38.50;;;13.50;;
67867;SDS011;54672;46.096;14.470;2023-12-07T11:02:38;34.88;;;12.70;;
67867;SDS011;54672;46.096;14.470;2023-12-07T11:05:06;36.38;;;13.20;;
67867;SDS011;54672;46.096;14.470;2023-12-07T11:07:38;33.53;;;12.88;;
67867;SDS011;54672;46.096;14.470;2023-12-07T11:10:30;33.38;;;12.35;;
67867;SDS011;54672;46.096;14.470;2023-12-07T11:13:10;32.80;;;12.98;;
67867;SDS011;54672;46.096;14.470;2023-12-07T11:15:41;36.75;;;13.55;;
67867;SDS011;54672;46.096;14.470;2023-12-07T11:18:07;34.70;;;13.30;;
67867;SDS011;54672;46.096;14.470;2023-12-07T11:23:07;33.83;;;12.07;;
67867;SDS011;54672;46.096;14.470;2023-12-07T11:25:33;33.25;;;11.93;;
67867;SDS011;54672;46.096;14.470;2023-12-07T11:28:00;35.45;;;14.15;;
67867;SDS011;54672;46.096;14.470;2023-12-07T11:30:26;32.22;;;13.48;;
67867;SDS011;54672;46.096;14.470;2023-12-07T11:32:52;31.63;;;13.00;;
67867;SDS011;54672;46.096;14.470;2023-12-07T11:35:18;33.60;;;12.75;;
67867;SDS011;54672;46.096;14.470;2023-12-07T11:40:32;35.53;;;13.48;;
67867;SDS011;54672;46.096;14.470;2023-12-07T11:42:59;34.78;;;14.45;;
67867;SDS011;54672;46.096;14.470;2023-12-07T11:45:41;39.83;;;13.82;;
67867;SDS011;54672;46.096;14.470;2023-12-07T11:48:13;38.50;;;13.52;;
67867;SDS011;54672;46.096;14.470;2023-12-07T11:50:53;35.85;;;13.60;;
67867;SDS011;54672;46.096;14.470;2023-12-07T11:53:20;41.13;;;14.48;;
67867;SDS011;54672;46.096;14.470;2023-12-07T11:55:55;33.72;;;13.45;;
67867;SDS011;54672;46.096;14.470;2023-12-07T11:58:22;34.25;;;13.48;;
67867;SDS011;54672;46.096;14.470;2023-12-07T12:00:50;40.15;;;14.20;;
67867;SDS011;54672;46.096;14.470;2023-12-07T12:03:17;35.20;;;13.90;;
67867;SDS011;54672;46.096;14.470;2023-12-07T12:05:43;41.60;;;14.68;;
67867;SDS011;54672;46.096;14.470;2023-12-07T12:08:09;32.45;;;14.18;;
67867;SDS011;54672;46.096;14.470;2023-12-07T12:10:35;38.45;;;14.45;;
67867;SDS011;54672;46.096;14.470;2023-12-07T12:13:02;38.78;;;14.40;;
67867;SDS011;54672;46.096;14.470;2023-12-07T12:15:28;30.77;;;11.70;;
67867;SDS011;54672;46.096;14.470;2023-12-07T12:17:57;41.00;;;13.88;;
67867;SDS011;54672;46.096;14.470;2023-12-07T12:20:26;34.47;;;14.02;;
67867;SDS011;54672;46.096;14.470;2023-12-07T12:22:52;32.97;;;11.88;;
67867;SDS011;54672;46.096;14.470;2023-12-07T12:25:25;37.40;;;13.70;;
67867;SDS011;54672;46.096;14.470;2023-12-07T12:27:53;29.45;;;11.77;;
67867;SDS011;54672;46.096;14.470;2023-12-07T12:30:20;32.08;;;13.77;;
67867;SDS011;54672;46.096;14.470;2023-12-07T12:32:48;36.55;;;14.07;;
67867;SDS011;54672;46.096;14.470;2023-12-07T12:35:14;41.47;;;15.70;;
67867;SDS011;54672;46.096;14.470;2023-12-07T12:37:42;48.30;;;17.30;;
67867;SDS011;54672;46.096;14.470;2023-12-07T12:40:10;47.25;;;16.75;;
67867;SDS011;54672;46.096;14.470;2023-12-07T12:42:36;49.08;;;18.33;;
67867;SDS011;54672;46.096;14.470;2023-12-07T12:45:03;47.97;;;17.48;;
67867;SDS011;54672;46.096;14.470;2023-12-07T12:47:29;42.30;;;16.23;;
67867;SDS011;54672;46.096;14.470;2023-12-07T12:49:54;43.00;;;16.77;;
67867;SDS011;54672;46.096;14.470;2023-12-07T12:52:20;50.55;;;18.40;;
67867;SDS011;54672;46.096;14.470;2023-12-07T12:54:46;45.30;;;17.42;;
67867;SDS011;54672;46.096;14.470;2023-12-07T12:57:14;40.38;;;14.15;;
67867;SDS011;54672;46.096;14.470;2023-12-07T12:59:39;43.10;;;15.38;;
67867;SDS011;54672;46.096;14.470;2023-12-07T13:02:05;41.75;;;14.43;;
67867;SDS011;54672;46.096;14.470;2023-12-07T13:04:30;46.03;;;17.25;;
67867;SDS011;54672;46.096;14.470;2023-12-07T13:06:56;41.45;;;14.40;;
67867;SDS011;54672;46.096;14.470;2023-12-07T13:09:21;47.35;;;16.30;;
67867;SDS011;54672;46.096;14.470;2023-12-07T13:11:47;42.35;;;14.82;;
67867;SDS011;54672;46.096;14.470;2023-12-07T13:14:14;41.83;;;15.93;;
67867;SDS011;54672;46.096;14.470;2023-12-07T13:16:39;40.78;;;15.30;;
67867;SDS011;54672;46.096;14.470;2023-12-07T13:19:05;46.38;;;17.25;;
67867;SDS011;54672;46.096;14.470;2023-12-07T13:21:32;43.78;;;16.75;;
67867;SDS011;54672;46.096;14.470;2023-12-07T13:23:57;55.22;;;16.38;;
67867;SDS011;54672;46.096;14.470;2023-12-07T13:26:23;48.55;;;16.58;;
67867;SDS011;54672;46.096;14.470;2023-12-07T13:28:49;46.17;;;15.55;;
67867;SDS011;54672;46.096;14.470;2023-12-07T13:31:15;46.25;;;16.73;;
67867;SDS011;54672;46.096;14.470;2023-12-07T13:33:40;44.88;;;16.73;;
67867;SDS011;54672;46.096;14.470;2023-12-07T13:36:07;41.30;;;15.20;;
67867;SDS011;54672;46.096;14.470;2023-12-07T13:38:32;50.33;;;17.08;;
67867;SDS011;54672;46.096;14.470;2023-12-07T13:40:59;42.22;;;15.27;;
67867;SDS011;54672;46.096;14.470;2023-12-07T13:43:25;48.85;;;17.10;;
67867;SDS011;54672;46.096;14.470;2023-12-07T13:45:50;50.97;;;16.65;;
67867;SDS011;54672;46.096;14.470;2023-12-07T13:48:16;42.10;;;15.68;;
67867;SDS011;54672;46.096;14.470;2023-12-07T13:50:43;50.70;;;17.60;;
67867;SDS011;54672;46.096;14.470;2023-12-07T13:53:08;55.13;;;17.38;;
67867;SDS011;54672;46.096;14.470;2023-12-07T13:55:37;45.25;;;17.15;;
67867;SDS011;54672;46.096;14.470;2023-12-07T13:58:04;52.72;;;18.20;;
67867;SDS011;54672;46.096;14.470;2023-12-07T14:00:31;51.05;;;18.45;;
67867;SDS011;54672;46.096;14.470;2023-12-07T14:02:57;51.35;;;18.33;;
67867;SDS011;54672;46.096;14.470;2023-12-07T14:05:23;46.75;;;17.63;;
67867;SDS011;54672;46.096;14.470;2023-12-07T14:07:49;48.25;;;17.23;;
67867;SDS011;54672;46.096;14.470;2023-12-07T14:10:15;51.72;;;17.60;;
67867;SDS011;54672;46.096;14.470;2023-12-07T14:12:41;49.05;;;18.35;;
67867;SDS011;54672;46.096;14.470;2023-12-07T14:15:06;50.92;;;17.13;;
67867;SDS011;54672;46.096;14.470;2023-12-07T14:17:33;50.75;;;17.77;;